createdAt,value
2019-05-21T00:00:46.797Z,16.59
2019-05-21T00:03:17.427Z,16.60
2019-05-21T00:05:48.060Z,16.54
2019-05-21T00:08:18.619Z,16.46
2019-05-21T00:10:49.199Z,16.41
2019-05-21T00:13:19.825Z,16.45
2019-05-21T00:15:50.480Z,16.38
2019-05-21T00:18:21.115Z,16.38
2019-05-21T00:20:51.692Z,16.33
2019-05-21T00:23:22.401Z,16.30
2019-05-21T00:25:53.118Z,16.29
2019-05-21T00:28:39.753Z,16.24
2019-05-21T00:31:46.547Z,16.28
2019-05-21T00:34:53.660Z,16.25
2019-05-21T00:38:00.678Z,16.04
2019-05-21T00:41:07.916Z,16.14
2019-05-21T00:43:47.376Z,16.10
2019-05-21T00:46:18.026Z,15.97
2019-05-21T00:48:48.657Z,15.99
2019-05-21T00:51:19.246Z,15.97
2019-05-21T00:53:49.803Z,15.96
2019-05-21T00:56:20.376Z,15.98
2019-05-21T00:58:51.153Z,15.96
2019-05-21T01:01:22.000Z,15.87
2019-05-21T01:03:52.581Z,15.85
2019-05-21T01:06:23.444Z,15.83
2019-05-21T01:08:54.039Z,15.85
2019-05-21T01:11:24.723Z,15.81
2019-05-21T01:13:55.544Z,15.76
2019-05-21T01:16:26.142Z,15.79
2019-05-21T01:18:56.721Z,15.67
2019-05-21T01:21:27.303Z,15.74
2019-05-21T01:23:57.985Z,15.79
2019-05-21T01:26:29.050Z,15.79
2019-05-21T01:28:59.742Z,15.69
2019-05-21T01:31:30.326Z,15.77
2019-05-21T01:34:00.919Z,15.61
2019-05-21T01:36:31.503Z,15.54
2019-05-21T01:39:02.081Z,15.41
2019-05-21T01:41:33.009Z,15.34
2019-05-21T01:44:04.785Z,15.49
2019-05-21T01:46:35.372Z,15.55
2019-05-21T01:49:05.935Z,15.50
2019-05-21T01:51:36.478Z,15.55
2019-05-21T01:54:07.045Z,15.45
2019-05-21T01:56:37.607Z,15.45
2019-05-21T01:59:09.229Z,15.32
2019-05-21T02:01:39.796Z,15.17
2019-05-21T02:04:10.370Z,15.29
2019-05-21T02:06:41.004Z,15.35
2019-05-21T02:09:11.555Z,15.36
2019-05-21T02:11:42.166Z,15.49
2019-05-21T02:14:12.742Z,15.45
2019-05-21T02:16:43.305Z,15.47
2019-05-21T02:19:13.884Z,15.47
2019-05-21T02:21:44.434Z,15.50
2019-05-21T02:24:14.986Z,15.50
2019-05-21T02:26:46.514Z,15.46
2019-05-21T02:29:17.093Z,15.39
2019-05-21T02:31:47.648Z,15.23
2019-05-21T02:34:18.229Z,15.24
2019-05-21T02:36:50.011Z,15.15
2019-05-21T02:39:21.632Z,15.10
2019-05-21T02:41:52.224Z,15.22
2019-05-21T02:44:22.776Z,15.04
2019-05-21T02:46:53.409Z,15.22
2019-05-21T02:49:23.985Z,15.30
2019-05-21T02:51:54.925Z,15.35
2019-05-21T02:54:40.245Z,15.32
2019-05-21T02:56:58.721Z,15.32
2019-05-21T02:59:29.293Z,15.31
2019-05-21T03:02:01.603Z,15.36
2019-05-21T03:04:33.242Z,15.31
2019-05-21T03:07:19.129Z,15.24
2019-05-21T03:09:50.109Z,15.16
2019-05-21T03:12:20.905Z,15.28
2019-05-21T03:14:51.598Z,15.28
2019-05-21T03:17:22.218Z,15.33
2019-05-21T03:19:52.771Z,15.31
2019-05-21T03:22:23.341Z,15.34
2019-05-21T03:24:53.925Z,15.33
2019-05-21T03:27:24.534Z,15.28
2019-05-21T03:29:55.085Z,15.24
2019-05-21T03:32:26.181Z,15.28
2019-05-21T03:34:56.912Z,15.14
2019-05-21T03:37:27.575Z,15.18
2019-05-21T03:39:58.269Z,15.30
2019-05-21T03:42:29.081Z,15.43
2019-05-21T03:45:01.100Z,15.49
2019-05-21T03:47:32.065Z,15.50
2019-05-21T03:50:03.332Z,15.35
2019-05-21T03:52:34.492Z,15.31
2019-05-21T03:55:06.241Z,15.40
2019-05-21T03:57:36.847Z,15.60
2019-05-21T04:00:09.752Z,15.56
2019-05-21T04:02:40.408Z,15.51
2019-05-21T04:05:11.497Z,15.74
2019-05-21T04:07:42.082Z,15.78
2019-05-21T04:10:17.500Z,15.86
2019-05-21T04:13:06.871Z,15.80
2019-05-21T04:15:53.074Z,15.93
2019-05-21T04:18:31.202Z,16.02
2019-05-21T04:21:01.777Z,16.15
2019-05-21T04:23:32.361Z,16.09
2019-05-21T04:26:02.944Z,16.11
2019-05-21T04:28:33.523Z,16.18
2019-05-21T04:31:04.163Z,16.25
2019-05-21T04:33:34.730Z,16.38
2019-05-21T04:36:05.438Z,16.46
2019-05-21T04:38:36.178Z,16.51
2019-05-21T04:41:06.807Z,16.58
2019-05-21T04:43:37.407Z,16.57
2019-05-21T04:46:08.006Z,16.68
2019-05-21T04:48:38.581Z,16.77
2019-05-21T04:51:13.487Z,16.85
2019-05-21T04:53:41.616Z,16.81
2019-05-21T04:56:12.451Z,16.92
2019-05-21T04:58:43.046Z,17.04
2019-05-21T05:01:13.702Z,17.13
2019-05-21T05:03:44.715Z,17.15
2019-05-21T05:06:15.631Z,17.22
2019-05-21T05:08:46.380Z,18.03
2019-05-21T05:11:17.087Z,18.19
2019-05-21T05:13:48.374Z,18.32
2019-05-21T05:16:19.077Z,18.34
2019-05-21T05:18:49.910Z,18.18
2019-05-21T05:21:21.543Z,18.08
2019-05-21T05:23:52.138Z,18.09
2019-05-21T05:26:22.712Z,18.30
2019-05-21T05:28:53.271Z,18.28
2019-05-21T05:31:23.840Z,18.27
2019-05-21T05:33:54.751Z,18.56
2019-05-21T05:36:25.460Z,21.83
2019-05-21T05:38:56.185Z,24.21
2019-05-21T05:41:27.337Z,27.29
2019-05-21T05:43:58.336Z,27.29
2019-05-21T05:46:29.287Z,28.43
2019-05-21T05:49:01.953Z,29.12
2019-05-21T05:51:32.957Z,29.58
2019-05-21T05:54:07.585Z,29.68
2019-05-21T05:56:37.834Z,30.53
2019-05-21T05:59:08.744Z,31.34
2019-05-21T06:01:39.387Z,31.68
2019-05-21T06:04:09.954Z,31.80
2019-05-21T06:06:40.636Z,32.20
2019-05-21T06:09:11.200Z,32.57
2019-05-21T06:11:41.746Z,32.98
2019-05-21T06:14:12.315Z,32.99
2019-05-21T06:16:42.897Z,33.27
2019-05-21T06:19:14.541Z,33.24
2019-05-21T06:21:45.322Z,33.34
2019-05-21T06:24:16.161Z,33.21
2019-05-21T06:26:46.712Z,33.31
2019-05-21T06:29:17.274Z,33.66
2019-05-21T06:31:47.976Z,33.64
2019-05-21T06:34:18.541Z,33.48
2019-05-21T06:36:49.137Z,33.71
2019-05-21T06:39:19.787Z,33.67
2019-05-21T06:41:50.362Z,33.29
2019-05-21T06:44:20.965Z,32.85
2019-05-21T06:46:51.661Z,33.20
2019-05-21T06:49:22.220Z,33.40
2019-05-21T06:51:54.272Z,32.86
2019-05-21T06:54:24.839Z,33.17
2019-05-21T06:56:55.435Z,33.83
2019-05-21T06:59:26.099Z,33.19
2019-05-21T07:01:56.840Z,33.04
2019-05-21T07:04:27.559Z,32.85
2019-05-21T07:06:59.228Z,33.46
2019-05-21T07:09:29.914Z,33.23
2019-05-21T07:12:00.485Z,33.15
2019-05-21T07:14:31.048Z,33.12
2019-05-21T07:17:01.623Z,32.94
2019-05-21T07:19:32.175Z,32.71
2019-05-21T07:22:12.034Z,32.51
2019-05-21T07:24:35.076Z,32.51
2019-05-21T07:27:05.717Z,32.80
2019-05-21T07:29:37.262Z,33.13
2019-05-21T07:32:07.842Z,33.18
2019-05-21T07:34:39.499Z,33.13
2019-05-21T07:37:10.130Z,32.76
2019-05-21T07:39:40.691Z,33.21
2019-05-21T07:42:14.315Z,32.55
2019-05-21T07:44:47.209Z,33.17
2019-05-21T07:47:17.776Z,33.24
2019-05-21T07:49:48.327Z,32.12
2019-05-21T07:52:18.981Z,31.93
2019-05-21T07:54:49.554Z,32.64
2019-05-21T07:57:20.181Z,32.38
2019-05-21T07:59:51.753Z,31.94
2019-05-21T08:02:22.310Z,32.20
2019-05-21T08:04:52.884Z,31.43
2019-05-21T08:07:23.443Z,32.07
2019-05-21T08:09:54.023Z,31.69
2019-05-21T08:12:38.305Z,31.53
2019-05-21T08:14:56.870Z,31.85
2019-05-21T08:17:27.494Z,30.85
2019-05-21T08:20:08.739Z,30.45
2019-05-21T08:22:30.466Z,31.72
2019-05-21T08:25:01.051Z,31.46
2019-05-21T08:27:31.666Z,31.31
2019-05-21T08:30:02.249Z,31.82
2019-05-21T08:32:32.983Z,31.26
2019-05-21T08:35:04.328Z,30.38
2019-05-21T08:37:34.887Z,30.48
2019-05-21T08:40:07.832Z,30.36
2019-05-21T08:42:38.918Z,30.28
2019-05-21T08:45:10.507Z,30.66
2019-05-21T08:47:41.069Z,30.86
2019-05-21T08:50:12.523Z,30.63
2019-05-21T08:52:43.102Z,31.19
2019-05-21T08:55:13.836Z,31.43
2019-05-21T08:57:44.528Z,30.40
2019-05-21T09:00:17.799Z,30.37
2019-05-21T09:02:48.431Z,29.77
2019-05-21T09:05:19.377Z,29.23
2019-05-21T09:07:53.108Z,29.83
2019-05-21T09:10:22.385Z,29.98
2019-05-21T09:12:52.966Z,30.14
2019-05-21T09:15:25.480Z,30.77
2019-05-21T09:17:56.075Z,31.29
2019-05-21T09:20:26.780Z,32.41
2019-05-21T09:22:57.425Z,32.00
2019-05-21T09:25:28.022Z,30.19
2019-05-21T09:27:58.857Z,28.63
2019-05-21T09:30:29.499Z,28.53
2019-05-21T09:33:00.070Z,28.52
2019-05-21T09:35:30.731Z,28.50
2019-05-21T09:38:01.319Z,28.56
2019-05-21T09:40:32.045Z,28.78
2019-05-21T09:43:04.109Z,28.83
2019-05-21T09:45:34.765Z,28.91
2019-05-21T09:48:05.577Z,28.89
2019-05-21T09:50:37.273Z,29.19
2019-05-21T09:53:07.976Z,29.57
2019-05-21T09:55:38.547Z,29.92
2019-05-21T09:58:13.687Z,30.37
2019-05-21T10:01:02.348Z,29.93
2019-05-21T10:03:50.908Z,29.21
2019-05-21T10:06:21.502Z,29.98
2019-05-21T10:08:52.103Z,30.44
2019-05-21T10:11:23.626Z,29.71
2019-05-21T10:13:55.302Z,28.98
2019-05-21T10:16:25.867Z,28.56
2019-05-21T10:18:56.491Z,28.55
2019-05-21T10:21:27.168Z,29.01
2019-05-21T10:23:57.775Z,28.52
2019-05-21T10:26:28.467Z,29.32
2019-05-21T10:28:59.055Z,29.80
2019-05-21T10:31:29.750Z,29.85
2019-05-21T10:34:00.323Z,30.28
2019-05-21T10:36:30.884Z,30.66
2019-05-21T10:39:01.880Z,30.90
2019-05-21T10:41:34.346Z,30.72
2019-05-21T10:44:05.087Z,29.84
2019-05-21T10:46:35.664Z,28.81
2019-05-21T10:49:06.480Z,28.46
2019-05-21T10:51:37.153Z,27.94
2019-05-21T10:54:08.041Z,28.27
2019-05-21T10:56:48.127Z,27.96
2019-05-21T10:59:10.892Z,27.69
2019-05-21T11:01:55.066Z,27.43
2019-05-21T11:04:36.041Z,27.21
2019-05-21T11:07:07.181Z,26.94
2019-05-21T11:09:37.831Z,26.39
2019-05-21T11:12:09.382Z,26.07
2019-05-21T11:14:39.934Z,25.71
2019-05-21T11:17:12.072Z,25.59
2019-05-21T11:19:42.669Z,25.37
2019-05-21T11:22:13.226Z,25.16
2019-05-21T11:24:43.777Z,25.03
2019-05-21T11:27:14.418Z,24.68
2019-05-21T11:29:44.997Z,24.35
2019-05-21T11:32:15.573Z,24.35
2019-05-21T11:34:49.818Z,24.28
2019-05-21T11:37:18.476Z,24.22
2019-05-21T11:39:49.036Z,24.42
2019-05-21T11:42:19.597Z,24.51
2019-05-21T11:44:50.159Z,24.73
2019-05-21T11:47:20.789Z,24.95
2019-05-21T11:49:51.511Z,25.24
2019-05-21T11:52:22.125Z,25.28
2019-05-21T11:54:55.797Z,25.34
2019-05-21T11:57:25.213Z,25.60
2019-05-21T11:59:55.766Z,25.48
2019-05-21T12:02:26.324Z,25.52
2019-05-21T12:04:56.882Z,25.40
2019-05-21T12:07:27.443Z,25.29
2019-05-21T12:09:58.020Z,25.21
2019-05-21T12:12:28.565Z,25.17
2019-05-21T12:14:59.140Z,25.31
2019-05-21T12:17:29.987Z,25.26
2019-05-21T12:20:00.568Z,25.24
2019-05-21T12:22:31.377Z,25.09
2019-05-21T12:25:02.034Z,24.86
2019-05-21T12:27:32.598Z,25.02
2019-05-21T12:30:04.983Z,25.12
2019-05-21T12:32:35.618Z,25.09
2019-05-21T12:35:07.041Z,24.99
2019-05-21T12:37:37.598Z,24.77
2019-05-21T12:40:09.532Z,24.70
2019-05-21T12:42:40.703Z,24.14
2019-05-21T12:45:11.415Z,23.91
2019-05-21T12:47:41.969Z,23.24
2019-05-21T12:50:14.104Z,22.53
2019-05-21T12:52:44.692Z,22.21
2019-05-21T12:55:17.820Z,22.02
2019-05-21T12:57:48.379Z,21.72
2019-05-21T13:00:19.780Z,21.61
2019-05-21T13:02:50.951Z,21.45
2019-05-21T13:05:21.511Z,21.77
2019-05-21T13:07:52.479Z,22.05
2019-05-21T13:10:23.105Z,22.22
2019-05-21T13:12:53.939Z,22.31
2019-05-21T13:15:24.504Z,22.44
2019-05-21T13:17:55.091Z,22.63
2019-05-21T13:20:25.703Z,22.89
2019-05-21T13:22:56.280Z,23.04
2019-05-21T13:25:27.188Z,23.38
2019-05-21T13:27:57.954Z,23.78
2019-05-21T13:30:28.847Z,24.05
2019-05-21T13:32:59.372Z,24.44
2019-05-21T13:35:30.002Z,24.52
2019-05-21T13:38:01.724Z,24.24
2019-05-21T13:40:32.738Z,23.89
2019-05-21T13:43:03.518Z,23.77
2019-05-21T13:45:35.169Z,23.63
2019-05-21T13:48:06.035Z,23.55
2019-05-21T13:50:36.595Z,23.55
2019-05-21T13:53:07.236Z,23.55
2019-05-21T13:55:37.809Z,23.50
2019-05-21T13:58:08.510Z,23.54
2019-05-21T14:00:40.807Z,23.85
2019-05-21T14:03:11.607Z,24.21
2019-05-21T14:05:42.444Z,24.24
2019-05-21T14:08:14.683Z,24.52
2019-05-21T14:10:46.758Z,24.70
2019-05-21T14:13:17.506Z,24.51
2019-05-21T14:15:48.088Z,24.26
2019-05-21T14:18:20.364Z,24.18
2019-05-21T14:20:52.638Z,23.91
2019-05-21T14:23:23.237Z,23.69
2019-05-21T14:25:53.810Z,23.65
2019-05-21T14:28:24.474Z,23.33
2019-05-21T14:30:55.038Z,23.43
2019-05-21T14:33:26.563Z,23.61
2019-05-21T14:35:57.353Z,23.78
2019-05-21T14:38:27.925Z,23.81
2019-05-21T14:41:00.208Z,23.44
2019-05-21T14:43:32.275Z,23.24
2019-05-21T14:46:02.947Z,23.11
2019-05-21T14:48:35.145Z,22.78
2019-05-21T14:51:05.821Z,22.65
2019-05-21T14:53:36.534Z,22.31
2019-05-21T14:56:08.144Z,22.26
2019-05-21T14:58:38.720Z,22.44
2019-05-21T15:01:09.524Z,22.47
2019-05-21T15:03:40.823Z,22.39
2019-05-21T15:06:11.566Z,22.25
2019-05-21T15:08:42.186Z,22.47
2019-05-21T15:11:15.937Z,22.68
2019-05-21T15:13:46.613Z,22.82
2019-05-21T15:16:20.364Z,22.63
2019-05-21T15:18:51.803Z,22.75
2019-05-21T15:21:26.846Z,22.79
2019-05-21T15:23:57.762Z,22.87
2019-05-21T15:26:28.573Z,23.01
2019-05-21T15:28:59.110Z,23.20
2019-05-21T15:31:30.158Z,23.36
2019-05-21T15:34:01.159Z,23.24
2019-05-21T15:36:31.893Z,23.32
2019-05-21T15:39:02.486Z,23.06
2019-05-21T15:41:34.135Z,23.10
2019-05-21T15:44:04.979Z,22.98
2019-05-21T15:46:47.821Z,23.09
2019-05-21T15:49:08.636Z,22.62
2019-05-21T15:51:39.225Z,22.54
2019-05-21T15:54:09.813Z,22.46
2019-05-21T15:56:40.427Z,22.53
2019-05-21T15:59:11.024Z,22.52
2019-05-21T16:01:41.804Z,22.63
2019-05-21T16:04:16.067Z,22.54
2019-05-21T16:06:44.626Z,22.59
2019-05-21T16:09:15.220Z,22.65
2019-05-21T16:11:45.874Z,22.55
2019-05-21T16:14:17.395Z,22.60
2019-05-21T16:16:47.945Z,22.66
2019-05-21T16:19:18.612Z,22.74
2019-05-21T16:21:49.306Z,22.77
2019-05-21T16:24:19.883Z,22.52
2019-05-21T16:26:50.468Z,22.40
2019-05-21T16:29:21.129Z,22.43
2019-05-21T16:31:52.066Z,22.47
2019-05-21T16:34:22.699Z,22.46
2019-05-21T16:36:53.453Z,22.26
2019-05-21T16:39:25.398Z,22.35
2019-05-21T16:41:55.951Z,22.34
2019-05-21T16:44:26.616Z,22.25
2019-05-21T16:46:58.947Z,22.28
2019-05-21T16:49:29.508Z,22.46
2019-05-21T16:52:00.088Z,22.40
2019-05-21T16:54:30.872Z,22.23
2019-05-21T16:57:01.581Z,22.15
2019-05-21T16:59:32.876Z,22.19
2019-05-21T17:02:06.074Z,22.17
2019-05-21T17:04:36.735Z,21.90
2019-05-21T17:07:07.361Z,21.86
2019-05-21T17:09:37.940Z,21.97
2019-05-21T17:12:09.158Z,22.07
2019-05-21T17:14:40.175Z,22.00
2019-05-21T17:17:10.809Z,21.99
2019-05-21T17:19:41.491Z,21.99
2019-05-21T17:22:12.276Z,21.88
2019-05-21T17:24:43.196Z,21.73
2019-05-21T17:27:14.695Z,21.67
2019-05-21T17:29:45.333Z,21.52
2019-05-21T17:32:15.947Z,21.59
2019-05-21T17:34:46.538Z,21.40
2019-05-21T17:37:17.247Z,21.41
2019-05-21T17:39:49.297Z,21.43
2019-05-21T17:42:19.896Z,21.44
2019-05-21T17:44:50.450Z,21.52
2019-05-21T17:47:23.610Z,21.52
2019-05-21T17:49:54.807Z,21.52
2019-05-21T17:52:26.699Z,21.53
2019-05-21T17:54:57.354Z,21.53
2019-05-21T17:57:29.343Z,21.52
2019-05-21T17:59:59.978Z,21.43
2019-05-21T18:02:32.182Z,21.26
2019-05-21T18:05:03.124Z,20.91
2019-05-21T18:07:38.572Z,20.91
2019-05-21T18:10:09.992Z,20.80
2019-05-21T18:12:40.620Z,20.65
2019-05-21T18:15:13.365Z,20.58
2019-05-21T18:17:44.121Z,20.62
2019-05-21T18:20:15.973Z,20.67
2019-05-21T18:22:48.747Z,20.72
2019-05-21T18:25:19.461Z,20.53
2019-05-21T18:27:50.211Z,20.38
2019-05-21T18:30:21.188Z,20.40
2019-05-21T18:32:53.202Z,20.40
2019-05-21T18:35:24.092Z,20.36
2019-05-21T18:37:55.038Z,20.43
2019-05-21T18:40:25.743Z,20.43
2019-05-21T18:42:56.782Z,20.54
2019-05-21T18:45:27.473Z,20.48
2019-05-21T18:47:58.074Z,20.25
2019-05-21T18:50:36.120Z,19.73
2019-05-21T18:53:01.193Z,18.66
2019-05-21T18:55:32.855Z,18.18
2019-05-21T18:58:03.625Z,17.98
2019-05-21T19:00:34.349Z,17.97
2019-05-21T19:03:05.321Z,18.18
2019-05-21T19:05:36.017Z,18.24
2019-05-21T19:08:06.648Z,17.95
2019-05-21T19:10:38.269Z,17.80
2019-05-21T19:13:10.859Z,17.86
2019-05-21T19:15:41.748Z,17.81
2019-05-21T19:18:13.637Z,17.73
2019-05-21T19:20:45.461Z,17.57
2019-05-21T19:23:16.211Z,17.43
2019-05-21T19:25:48.396Z,17.35
2019-05-21T19:28:19.306Z,17.45
2019-05-21T19:30:50.048Z,17.46
2019-05-21T19:33:21.918Z,17.55
2019-05-21T19:35:54.074Z,17.66
2019-05-21T19:38:26.123Z,17.82
2019-05-21T19:40:56.859Z,17.77
2019-05-21T19:43:27.505Z,17.75
2019-05-21T19:45:58.643Z,17.57
2019-05-21T19:48:30.407Z,17.67
2019-05-21T19:51:01.015Z,17.69
2019-05-21T19:53:32.067Z,17.76
2019-05-21T19:56:05.409Z,17.79
2019-05-21T19:58:37.209Z,17.84
2019-05-21T20:01:08.521Z,17.96
2019-05-21T20:03:42.465Z,17.89
2019-05-21T20:06:16.617Z,17.80
2019-05-21T20:08:48.431Z,17.78
2019-05-21T20:11:20.860Z,17.71
2019-05-21T20:13:54.365Z,17.76
2019-05-21T20:16:25.850Z,17.88
2019-05-21T20:18:57.053Z,18.00
2019-05-21T20:21:29.194Z,18.17
2019-05-21T20:24:02.239Z,18.18
2019-05-21T20:26:34.927Z,18.20
2019-05-21T20:29:09.365Z,18.21
2019-05-21T20:31:41.028Z,18.05
2019-05-21T20:34:12.921Z,18.24
2019-05-21T20:36:45.366Z,18.35
2019-05-21T20:39:16.535Z,18.33
2019-05-21T20:41:47.818Z,18.24
2019-05-21T20:44:18.545Z,18.17
2019-05-21T20:46:49.968Z,18.07
2019-05-21T20:49:20.555Z,18.21
2019-05-21T20:51:52.006Z,18.18
2019-05-21T20:54:23.220Z,18.20
2019-05-21T20:56:54.814Z,18.17
2019-05-21T20:59:25.503Z,18.16
2019-05-21T21:01:57.445Z,18.16
2019-05-21T21:04:28.429Z,18.12
2019-05-21T21:07:01.023Z,18.04
2019-05-21T21:09:31.718Z,18.06
2019-05-21T21:12:02.997Z,18.15
2019-05-21T21:14:33.655Z,18.17
2019-05-21T21:17:05.988Z,18.15
2019-05-21T21:19:36.787Z,18.25
2019-05-21T21:24:29.140Z,18.26
2019-05-21T21:27:01.178Z,17.99
2019-05-21T21:29:31.749Z,17.94
2019-05-21T21:32:02.723Z,17.98
2019-05-21T21:34:33.804Z,18.05
2019-05-21T21:37:05.699Z,17.96
2019-05-21T21:39:38.035Z,17.94
2019-05-21T21:42:08.702Z,17.84
2019-05-21T21:44:41.710Z,17.69
2019-05-21T21:47:12.772Z,17.67
2019-05-21T21:49:44.121Z,17.83
2019-05-21T21:52:16.184Z,17.76
2019-05-21T21:54:47.293Z,17.74
2019-05-21T21:57:18.017Z,17.73
2019-05-21T21:59:48.592Z,17.39
2019-05-21T22:02:28.462Z,17.63
2019-05-21T22:04:59.766Z,17.60
2019-05-21T22:07:31.904Z,17.68
2019-05-21T22:10:04.673Z,17.74
2019-05-21T22:12:37.198Z,17.66
2019-05-21T22:15:08.281Z,17.54
2019-05-21T22:17:42.342Z,17.59
2019-05-21T22:20:14.229Z,17.55
2019-05-21T22:22:45.942Z,17.74
2019-05-21T22:25:17.878Z,17.77
2019-05-21T22:27:48.452Z,17.90
2019-05-21T22:30:19.771Z,17.85
2019-05-21T22:32:50.333Z,18.00
2019-05-21T22:38:40.360Z,18.09
2019-05-21T22:41:10.957Z,17.97
2019-05-21T22:43:41.779Z,18.07
2019-05-21T22:46:12.355Z,18.05
2019-05-21T22:48:43.021Z,18.01
2019-05-21T22:51:13.643Z,17.92
2019-05-21T22:53:44.382Z,17.72
2019-05-21T22:56:15.029Z,17.56
2019-05-21T22:58:45.622Z,17.71
2019-05-21T23:01:16.377Z,17.75
2019-05-21T23:03:47.051Z,17.76
2019-05-21T23:06:17.712Z,17.79
2019-05-21T23:08:48.658Z,17.72
2019-05-21T23:11:22.862Z,17.78
2019-05-21T23:13:51.958Z,17.80
2019-05-21T23:16:23.553Z,17.80
2019-05-21T23:19:13.066Z,17.76
2019-05-21T23:21:46.266Z,17.62
2019-05-21T23:24:19.193Z,17.50
2019-05-21T23:26:50.009Z,17.48
2019-05-21T23:29:21.380Z,17.53
2019-05-21T23:31:53.195Z,17.41
2019-05-21T23:34:23.797Z,17.37
2019-05-21T23:36:54.795Z,17.37
2019-05-21T23:39:27.571Z,17.35
2019-05-21T23:41:58.220Z,17.41
2019-05-21T23:44:28.780Z,17.40
2019-05-21T23:46:59.717Z,17.33
2019-05-21T23:49:30.631Z,17.35
2019-05-21T23:52:01.333Z,17.33
2019-05-21T23:54:32.172Z,17.30
2019-05-21T23:57:03.012Z,16.94
2019-05-21T23:59:33.563Z,16.92
